createdAt,value
2023-04-09T00:00:52.571Z,52.00
2023-04-09T00:01:52.776Z,54.70
2023-04-09T00:02:52.824Z,54.40
2023-04-09T00:03:52.888Z,53.80
2023-04-09T00:04:52.815Z,60.10
2023-04-09T00:05:52.647Z,72.80
2023-04-09T00:06:52.661Z,74.50
2023-04-09T00:07:52.676Z,69.20
2023-04-09T00:08:53.054Z,71.20
2023-04-09T00:09:52.613Z,64.10
2023-04-09T00:10:52.597Z,66.10
2023-04-09T00:11:52.601Z,74.00
2023-04-09T00:12:52.587Z,67.90
2023-04-09T00:13:52.675Z,68.40
2023-04-09T00:14:52.601Z,60.00
2023-04-09T00:15:52.653Z,63.10
2023-04-09T00:16:52.541Z,62.00
2023-04-09T00:17:52.622Z,59.70
2023-04-09T00:18:52.999Z,60.20
2023-04-09T00:19:52.569Z,58.50
2023-04-09T00:20:52.498Z,56.20
2023-04-09T00:21:52.535Z,54.80
2023-04-09T00:22:52.521Z,51.70
2023-04-09T00:23:52.510Z,51.20
2023-04-09T00:24:52.582Z,49.90
2023-04-09T00:25:52.500Z,48.10
2023-04-09T00:26:52.409Z,47.00
2023-04-09T00:27:52.481Z,48.40
2023-04-09T00:28:52.783Z,50.50
2023-04-09T00:29:52.446Z,52.10
2023-04-09T00:30:52.527Z,52.50
2023-04-09T00:31:52.452Z,49.70
2023-04-09T00:32:52.476Z,54.90
2023-04-09T00:33:52.443Z,51.70
2023-04-09T00:34:52.323Z,53.80
2023-04-09T00:35:52.457Z,52.30
2023-04-09T00:36:52.313Z,48.30
2023-04-09T00:37:52.313Z,46.00
2023-04-09T00:38:52.576Z,45.00
2023-04-09T00:39:52.332Z,41.60
2023-04-09T00:40:52.320Z,44.10
2023-04-09T00:41:52.306Z,46.30
2023-04-09T00:42:52.219Z,45.30
2023-04-09T00:43:52.204Z,39.50
2023-04-09T00:44:52.266Z,41.20
2023-04-09T00:45:52.281Z,41.90
2023-04-09T00:46:52.330Z,41.00
2023-04-09T00:47:52.339Z,43.90
2023-04-09T00:48:52.494Z,41.40
2023-04-09T00:49:52.232Z,39.40
2023-04-09T00:50:52.215Z,40.40
2023-04-09T00:51:52.122Z,43.00
2023-04-09T00:52:52.136Z,45.20
2023-04-09T00:53:52.109Z,44.20
2023-04-09T00:54:52.099Z,45.10
2023-04-09T00:55:52.117Z,46.80
2023-04-09T00:56:52.180Z,48.80
2023-04-09T00:57:52.068Z,49.00
2023-04-09T00:58:52.412Z,54.50
2023-04-09T00:59:52.050Z,53.90
2023-04-09T01:00:52.083Z,52.70
2023-04-09T01:01:52.199Z,57.60
2023-04-09T01:02:52.188Z,55.40
2023-04-09T01:03:52.238Z,58.80
2023-04-09T01:04:52.124Z,64.00
2023-04-09T01:05:52.102Z,61.80
2023-04-09T01:06:52.004Z,63.00
2023-04-09T01:07:52.001Z,59.80
2023-04-09T01:08:52.307Z,62.30
2023-04-09T01:09:51.960Z,61.60
2023-04-09T01:10:52.006Z,58.40
2023-04-09T01:11:52.077Z,61.70
2023-04-09T01:12:51.882Z,59.10
2023-04-09T01:13:52.065Z,59.40
2023-04-09T01:14:51.966Z,64.10
2023-04-09T01:15:51.952Z,63.20
2023-04-09T01:16:52.094Z,64.90
2023-04-09T01:17:52.039Z,64.10
2023-04-09T01:18:52.213Z,63.60
2023-04-09T01:19:51.908Z,63.80
2023-04-09T01:20:51.895Z,61.00
2023-04-09T01:21:51.910Z,62.70
2023-04-09T01:22:51.900Z,62.10
2023-04-09T01:23:51.790Z,67.20
2023-04-09T01:24:51.860Z,63.30
2023-04-09T01:25:51.813Z,63.60
2023-04-09T01:26:51.728Z,64.00
2023-04-09T01:27:51.812Z,63.80
2023-04-09T01:28:52.053Z,64.20
2023-04-09T01:29:51.733Z,63.40
2023-04-09T01:30:51.907Z,60.60
2023-04-09T01:31:51.801Z,62.70
2023-04-09T01:32:51.760Z,61.00
2023-04-09T01:33:51.725Z,63.00
2023-04-09T01:34:51.801Z,61.10
2023-04-09T01:35:51.741Z,60.70
2023-04-09T01:36:51.706Z,62.30
2023-04-09T01:37:51.687Z,61.00
2023-04-09T01:38:51.888Z,56.80
2023-04-09T01:39:51.533Z,58.60
2023-04-09T01:40:51.507Z,58.60
2023-04-09T01:41:51.725Z,59.10
2023-04-09T01:42:51.656Z,60.70
2023-04-09T01:43:51.642Z,57.20
2023-04-09T01:44:51.641Z,60.80
2023-04-09T01:45:51.804Z,56.80
2023-04-09T01:46:51.661Z,61.20
2023-04-09T01:47:51.728Z,60.80
2023-04-09T01:48:51.904Z,57.80
2023-04-09T01:49:51.610Z,61.80
2023-04-09T01:50:51.613Z,59.80
2023-04-09T01:51:51.580Z,61.70
2023-04-09T01:52:51.635Z,61.10
2023-04-09T01:53:51.574Z,60.90
2023-04-09T01:54:51.540Z,59.20
2023-04-09T01:55:51.524Z,59.20
2023-04-09T01:56:51.509Z,61.90
2023-04-09T01:57:51.581Z,63.00
2023-04-09T01:58:51.681Z,59.90
2023-04-09T01:59:51.480Z,65.90
2023-04-09T02:00:51.508Z,61.00
2023-04-09T02:01:51.584Z,63.70
2023-04-09T02:02:51.629Z,62.30
2023-04-09T02:03:51.688Z,64.70
2023-04-09T02:04:51.361Z,71.40
2023-04-09T02:05:51.374Z,74.80
2023-04-09T02:06:51.329Z,70.90
2023-04-09T02:07:51.407Z,65.70
2023-04-09T02:08:51.753Z,77.50
2023-04-09T02:09:51.422Z,60.60
2023-04-09T02:10:51.335Z,69.00
2023-04-09T02:11:51.310Z,82.80
2023-04-09T02:12:51.324Z,130.50
2023-04-09T02:13:51.359Z,83.80
2023-04-09T02:14:51.161Z,109.50
2023-04-09T02:15:51.371Z,109.10
2023-04-09T02:16:51.244Z,110.50
2023-04-09T02:17:51.254Z,124.80
2023-04-09T02:18:51.768Z,165.00
2023-04-09T02:19:51.272Z,164.70
2023-04-09T02:20:51.087Z,129.20
2023-04-09T02:21:51.117Z,146.70
2023-04-09T02:22:51.160Z,140.10
2023-04-09T02:23:51.115Z,132.40
2023-04-09T02:24:51.124Z,178.20
2023-04-09T02:25:51.112Z,133.20
2023-04-09T02:26:51.212Z,119.00
2023-04-09T02:27:51.224Z,90.30
2023-04-09T02:28:51.454Z,98.30
2023-04-09T02:29:51.288Z,82.40
2023-04-09T02:30:51.233Z,73.60
2023-04-09T02:31:51.100Z,77.20
2023-04-09T02:32:51.148Z,91.00
2023-04-09T02:33:51.078Z,88.80
2023-04-09T02:34:51.020Z,66.70
2023-04-09T02:35:51.136Z,61.10
2023-04-09T02:36:51.195Z,64.90
2023-04-09T02:37:51.130Z,67.10
2023-04-09T02:38:51.413Z,70.70
2023-04-09T02:39:51.109Z,65.70
2023-04-09T02:40:51.171Z,66.50
2023-04-09T02:41:51.091Z,72.40
2023-04-09T02:42:51.074Z,80.30
2023-04-09T02:43:50.994Z,78.50
2023-04-09T02:44:50.985Z,81.10
2023-04-09T02:45:50.991Z,77.00
2023-04-09T02:46:51.056Z,76.50
2023-04-09T02:47:51.010Z,77.50
2023-04-09T02:48:51.265Z,83.90
2023-04-09T02:49:50.962Z,80.60
2023-04-09T02:50:50.785Z,87.50
2023-04-09T02:51:51.049Z,93.90
2023-04-09T02:52:50.957Z,94.50
2023-04-09T02:53:51.042Z,89.80
2023-04-09T02:54:50.949Z,107.50
2023-04-09T02:55:50.972Z,109.00
2023-04-09T02:56:50.867Z,116.80
2023-04-09T02:57:50.951Z,119.10
2023-04-09T02:58:51.137Z,132.90
2023-04-09T02:59:50.824Z,116.80
2023-04-09T03:00:50.691Z,112.30
2023-04-09T03:01:50.960Z,132.00
2023-04-09T03:02:50.879Z,118.00
2023-04-09T03:03:50.871Z,133.20
2023-04-09T03:04:50.834Z,124.30
2023-04-09T03:05:50.773Z,111.90
2023-04-09T03:06:50.777Z,124.90
2023-04-09T03:07:50.858Z,112.00
2023-04-09T03:08:51.060Z,137.40
2023-04-09T03:09:50.786Z,130.60
2023-04-09T03:10:50.789Z,138.90
2023-04-09T03:11:50.716Z,131.10
2023-04-09T03:12:50.718Z,129.70
2023-04-09T03:13:50.802Z,136.40
2023-04-09T03:14:50.650Z,149.00
2023-04-09T03:15:50.773Z,117.30
2023-04-09T03:16:50.732Z,137.70
2023-04-09T03:17:50.698Z,133.30
2023-04-09T03:18:50.917Z,145.50
2023-04-09T03:19:50.754Z,134.00
2023-04-09T03:20:50.629Z,145.10
2023-04-09T03:21:50.580Z,177.30
2023-04-09T03:22:50.589Z,154.00
2023-04-09T03:23:50.586Z,186.20
2023-04-09T03:24:50.683Z,174.30
2023-04-09T03:25:50.590Z,169.00
2023-04-09T03:26:50.588Z,146.30
2023-04-09T03:27:50.569Z,152.80
2023-04-09T03:28:50.834Z,140.10
2023-04-09T03:29:50.621Z,183.90
2023-04-09T03:30:50.673Z,151.10
2023-04-09T03:31:50.539Z,142.60
2023-04-09T03:32:50.616Z,133.60
2023-04-09T03:33:50.486Z,135.30
2023-04-09T03:34:50.465Z,150.70
2023-04-09T03:35:50.524Z,154.60
2023-04-09T03:36:50.517Z,174.30
2023-04-09T03:37:50.450Z,164.10
2023-04-09T03:38:50.718Z,170.70
2023-04-09T03:39:50.559Z,165.60
2023-04-09T03:40:50.561Z,204.40
2023-04-09T03:41:50.401Z,179.30
2023-04-09T03:42:50.563Z,225.90
2023-04-09T03:43:50.475Z,242.70
2023-04-09T03:44:50.454Z,207.00
2023-04-09T03:45:50.457Z,190.30
2023-04-09T03:46:50.522Z,221.30
2023-04-09T03:47:50.543Z,205.70
2023-04-09T03:48:50.697Z,277.90
2023-04-09T03:49:50.445Z,198.70
2023-04-09T03:50:50.224Z,215.10
2023-04-09T03:51:50.553Z,220.50
2023-04-09T03:52:50.401Z,206.80
2023-04-09T03:53:50.374Z,212.80
2023-04-09T03:54:50.360Z,214.90
2023-04-09T03:55:50.339Z,227.80
2023-04-09T03:56:50.337Z,274.80
2023-04-09T03:57:50.384Z,201.00
2023-04-09T03:58:50.412Z,228.10
2023-04-09T03:59:50.273Z,236.90
2023-04-09T04:00:50.266Z,235.90
2023-04-09T04:01:50.380Z,202.10
2023-04-09T04:02:50.723Z,212.80
2023-04-09T04:03:50.420Z,250.60
2023-04-09T04:04:50.404Z,262.80
2023-04-09T04:05:50.263Z,238.70
2023-04-09T04:06:50.265Z,251.40
2023-04-09T04:07:50.250Z,220.60
2023-04-09T04:08:50.372Z,193.90
2023-04-09T04:09:50.142Z,199.80
2023-04-09T04:10:50.139Z,224.40
2023-04-09T04:11:50.167Z,191.20
2023-04-09T04:12:50.125Z,185.10
2023-04-09T04:13:50.174Z,222.80
2023-04-09T04:14:49.996Z,267.70
2023-04-09T04:15:49.959Z,213.90
2023-04-09T04:16:49.908Z,236.00
2023-04-09T04:17:50.024Z,243.10
2023-04-09T04:18:50.571Z,200.00
2023-04-09T04:19:50.001Z,186.60
2023-04-09T04:20:49.996Z,258.40
2023-04-09T04:21:49.991Z,203.80
2023-04-09T04:22:49.994Z,172.90
2023-04-09T04:23:50.051Z,171.10
2023-04-09T04:24:49.968Z,218.40
2023-04-09T04:25:49.958Z,151.70
2023-04-09T04:26:49.949Z,172.60
2023-04-09T04:27:49.930Z,175.70
2023-04-09T04:28:50.128Z,179.70
2023-04-09T04:29:49.985Z,154.80
2023-04-09T04:30:49.895Z,200.60
2023-04-09T04:31:49.932Z,189.40
2023-04-09T04:32:49.841Z,164.70
2023-04-09T04:33:49.715Z,165.90
2023-04-09T04:34:49.760Z,189.40
2023-04-09T04:35:49.732Z,214.80
2023-04-09T04:36:49.634Z,184.60
2023-04-09T04:37:49.707Z,170.40
2023-04-09T04:38:50.003Z,197.80
2023-04-09T04:39:49.892Z,214.80
2023-04-09T04:40:49.800Z,159.60
2023-04-09T04:41:49.792Z,206.10
2023-04-09T04:42:49.786Z,196.40
2023-04-09T04:43:49.781Z,158.80
2023-04-09T04:44:49.831Z,182.40
2023-04-09T04:45:50.665Z,175.50
2023-04-09T04:46:49.773Z,159.50
2023-04-09T04:47:49.739Z,166.50
2023-04-09T04:48:49.818Z,205.50
2023-04-09T04:49:49.641Z,148.10
2023-04-09T04:50:49.702Z,167.50
2023-04-09T04:51:49.766Z,154.40
2023-04-09T04:52:49.661Z,148.00
2023-04-09T04:53:49.645Z,166.90
2023-04-09T04:54:49.616Z,159.50
2023-04-09T04:55:49.610Z,140.60
2023-04-09T04:56:49.671Z,143.30
2023-04-09T04:57:49.577Z,155.20
2023-04-09T04:58:49.713Z,171.00
2023-04-09T04:59:49.551Z,144.70
2023-04-09T05:00:49.422Z,185.50
2023-04-09T05:01:49.621Z,159.40
2023-04-09T05:02:49.731Z,180.50
2023-04-09T05:03:49.617Z,172.20
2023-04-09T05:04:49.493Z,157.40
2023-04-09T05:05:49.497Z,173.50
2023-04-09T05:06:49.501Z,171.30
2023-04-09T05:07:49.587Z,163.10
2023-04-09T05:08:49.502Z,193.90
2023-04-09T05:09:49.498Z,151.80
2023-04-09T05:10:49.421Z,166.30
2023-04-09T05:11:49.432Z,156.40
2023-04-09T05:12:49.422Z,136.30
2023-04-09T05:13:49.407Z,169.20
2023-04-09T05:14:49.470Z,134.20
2023-04-09T05:15:49.386Z,166.60
2023-04-09T05:16:49.407Z,140.30
2023-04-09T05:17:49.448Z,147.30
2023-04-09T05:18:49.367Z,171.70
2023-04-09T05:19:49.436Z,153.20
2023-04-09T05:20:49.344Z,110.20
2023-04-09T05:21:49.321Z,124.60
2023-04-09T05:22:49.307Z,135.70
2023-04-09T05:23:49.362Z,116.40
2023-04-09T05:24:49.281Z,121.50
2023-04-09T05:25:49.360Z,128.40
2023-04-09T05:26:49.265Z,101.40
2023-04-09T05:27:49.249Z,111.40
2023-04-09T05:28:49.233Z,114.80
2023-04-09T05:29:49.221Z,112.60
2023-04-09T05:30:49.337Z,126.90
2023-04-09T05:31:49.217Z,101.30
2023-04-09T05:32:49.232Z,108.30
2023-04-09T05:33:49.281Z,113.20
2023-04-09T05:34:49.187Z,107.80
2023-04-09T05:35:49.216Z,91.70
2023-04-09T05:36:49.241Z,105.80
2023-04-09T05:37:49.151Z,86.30
2023-04-09T05:38:49.130Z,79.90
2023-04-09T05:39:49.123Z,85.60
2023-04-09T05:40:49.128Z,101.40
2023-04-09T05:41:49.182Z,87.00
2023-04-09T05:42:49.101Z,88.80
2023-04-09T05:43:49.071Z,78.00
2023-04-09T05:44:49.065Z,90.10
2023-04-09T05:45:49.058Z,83.30
2023-04-09T05:46:49.118Z,82.80
2023-04-09T05:47:49.132Z,91.40
2023-04-09T05:48:49.051Z,80.20
2023-04-09T05:49:49.042Z,96.60
2023-04-09T05:50:54.596Z,95.50
2023-04-09T05:51:49.015Z,82.90
2023-04-09T05:52:49.076Z,92.90
2023-04-09T05:53:48.973Z,73.60
2023-04-09T05:54:48.950Z,77.50
2023-04-09T05:55:49.010Z,74.50
2023-04-09T05:56:48.980Z,76.60
2023-04-09T05:57:48.953Z,68.20
2023-04-09T05:58:49.005Z,73.30
2023-04-09T05:59:48.915Z,56.80
2023-04-09T06:00:48.891Z,59.10
2023-04-09T06:01:48.895Z,63.30
2023-04-09T06:02:49.099Z,57.40
2023-04-09T06:03:49.040Z,52.60
2023-04-09T06:04:48.754Z,65.10
2023-04-09T06:05:48.894Z,60.80
2023-04-09T06:06:48.883Z,70.80
2023-04-09T06:07:48.726Z,64.10
2023-04-09T06:08:48.784Z,64.50
2023-04-09T06:09:48.957Z,67.60
2023-04-09T06:10:48.808Z,66.60
2023-04-09T06:11:48.693Z,60.50
2023-04-09T06:12:48.664Z,69.40
2023-04-09T06:13:48.712Z,71.50
2023-04-09T06:14:48.774Z,60.20
2023-04-09T06:15:48.809Z,63.10
2023-04-09T06:16:48.635Z,57.00
2023-04-09T06:17:48.635Z,56.80
2023-04-09T06:18:48.680Z,67.60
2023-04-09T06:19:48.620Z,60.20
2023-04-09T06:20:48.610Z,67.90
2023-04-09T06:21:48.720Z,61.90
2023-04-09T06:22:48.793Z,64.20
2023-04-09T06:23:48.825Z,62.70
2023-04-09T06:24:48.796Z,52.70
2023-04-09T06:25:48.606Z,52.40
2023-04-09T06:26:48.576Z,63.40
2023-04-09T06:27:48.539Z,58.40
2023-04-09T06:28:48.587Z,53.90
2023-04-09T06:29:48.649Z,53.30
2023-04-09T06:30:48.677Z,56.90
2023-04-09T06:31:48.724Z,61.90
2023-04-09T06:32:54.376Z,51.00
2023-04-09T06:33:48.477Z,50.50
2023-04-09T06:34:48.603Z,53.20
2023-04-09T06:35:48.637Z,53.40
2023-04-09T06:36:48.612Z,50.10
2023-04-09T06:37:48.474Z,52.50
2023-04-09T06:38:48.486Z,52.40
2023-04-09T06:40:00.672Z,48.90
2023-04-09T06:40:48.365Z,49.20
2023-04-09T06:41:48.353Z,45.10
2023-04-09T06:42:48.392Z,43.40
2023-04-09T06:43:48.518Z,43.10
2023-04-09T06:44:48.399Z,42.90
2023-04-09T06:45:48.398Z,39.10
2023-04-09T06:46:48.390Z,41.40
2023-04-09T06:47:48.411Z,37.70
2023-04-09T06:48:48.324Z,36.90
2023-04-09T06:49:48.261Z,34.40
2023-04-09T06:50:48.399Z,33.90
2023-04-09T06:51:48.276Z,33.90
2023-04-09T06:52:48.244Z,33.00
2023-04-09T06:53:48.448Z,33.50
2023-04-09T06:54:48.272Z,32.40
2023-04-09T06:55:48.344Z,34.60
2023-04-09T06:56:48.243Z,33.70
2023-04-09T06:57:48.195Z,30.90
2023-04-09T06:58:48.354Z,31.10
2023-04-09T06:59:48.199Z,31.10
2023-04-09T07:00:48.206Z,31.80
2023-04-09T07:01:48.315Z,31.80
2023-04-09T07:02:48.448Z,28.40
2023-04-09T07:03:48.325Z,29.20
2023-04-09T07:04:48.231Z,29.30
2023-04-09T07:05:48.121Z,28.80
2023-04-09T07:06:48.136Z,28.50
2023-04-09T07:07:48.114Z,29.90
2023-04-09T07:08:48.293Z,30.30
2023-04-09T07:09:48.156Z,30.60
2023-04-09T07:10:48.085Z,28.10
2023-04-09T07:11:48.124Z,28.90
2023-04-09T07:12:48.217Z,29.10
2023-04-09T07:13:48.044Z,28.10
2023-04-09T07:14:48.149Z,30.30
2023-04-09T07:15:48.087Z,31.30
2023-04-09T07:16:48.019Z,30.10
2023-04-09T07:17:48.003Z,30.30
2023-04-09T07:18:48.036Z,28.10
2023-04-09T07:19:47.957Z,27.30
2023-04-09T07:20:48.089Z,28.60
2023-04-09T07:21:47.931Z,28.90
2023-04-09T07:22:47.963Z,28.90
2023-04-09T07:23:47.942Z,28.70
2023-04-09T07:24:47.964Z,30.10
2023-04-09T07:25:48.069Z,31.30
2023-04-09T07:26:48.716Z,31.30
2023-04-09T07:27:47.902Z,31.20
2023-04-09T07:28:47.872Z,32.00
2023-04-09T07:29:47.897Z,32.40
2023-04-09T07:30:47.914Z,32.50
2023-04-09T07:31:47.967Z,30.80
2023-04-09T07:32:48.061Z,28.40
2023-04-09T07:33:47.848Z,27.70
2023-04-09T07:34:47.877Z,28.80
2023-04-09T07:35:47.891Z,29.20
2023-04-09T07:36:47.792Z,30.20
2023-04-09T07:37:47.789Z,29.90
2023-04-09T07:38:47.936Z,34.40
2023-04-09T07:39:47.903Z,30.50
2023-04-09T07:40:47.997Z,30.60
2023-04-09T07:41:47.957Z,30.20
2023-04-09T07:42:47.909Z,30.70
2023-04-09T07:43:47.955Z,29.10
2023-04-09T07:44:47.964Z,31.40
2023-04-09T07:45:47.918Z,30.60
2023-04-09T07:46:47.979Z,30.30
2023-04-09T07:47:47.702Z,30.30
2023-04-09T07:48:48.520Z,29.80
2023-04-09T07:49:47.829Z,30.70
2023-04-09T07:50:47.788Z,31.90
2023-04-09T07:51:47.844Z,30.40
2023-04-09T07:52:47.787Z,31.10
2023-04-09T07:53:47.891Z,29.60
2023-04-09T07:54:47.784Z,29.20
2023-04-09T07:55:47.636Z,28.40
2023-04-09T07:56:47.642Z,27.60
2023-04-09T07:57:47.705Z,28.40
2023-04-09T07:58:47.708Z,29.70
2023-04-09T07:59:47.689Z,28.70
2023-04-09T08:00:47.769Z,29.10
2023-04-09T08:01:47.594Z,29.10
2023-04-09T08:02:47.891Z,28.10
2023-04-09T08:03:47.644Z,29.00
2023-04-09T08:04:47.686Z,29.30
2023-04-09T08:05:47.699Z,29.40
2023-04-09T08:06:47.745Z,30.30
2023-04-09T08:07:47.608Z,30.40
2023-04-09T08:08:47.659Z,31.00
2023-04-09T08:09:47.602Z,27.60
2023-04-09T08:10:47.629Z,28.80
2023-04-09T08:11:47.573Z,28.40
2023-04-09T08:12:47.664Z,29.30
2023-04-09T08:13:47.685Z,30.40
2023-04-09T08:14:47.563Z,29.60
2023-04-09T08:15:47.542Z,28.90
2023-04-09T08:16:47.781Z,30.60
2023-04-09T08:17:47.599Z,29.30
2023-04-09T08:18:47.439Z,30.20
2023-04-09T08:19:47.513Z,30.40
2023-04-09T08:20:47.499Z,31.50
2023-04-09T08:21:47.473Z,29.90
2023-04-09T08:22:47.342Z,30.00
2023-04-09T08:23:47.568Z,29.40
2023-04-09T08:24:47.508Z,29.90
2023-04-09T08:25:47.450Z,30.20
2023-04-09T08:26:47.463Z,27.80
2023-04-09T08:27:47.410Z,28.80
2023-04-09T08:28:47.482Z,29.20
2023-04-09T08:29:47.490Z,29.30
2023-04-09T08:30:47.535Z,28.60
2023-04-09T08:31:47.532Z,30.90
2023-04-09T08:32:47.421Z,28.70
2023-04-09T08:33:47.382Z,29.00
2023-04-09T08:34:47.407Z,29.00
2023-04-09T08:35:47.343Z,28.70
2023-04-09T08:36:47.420Z,28.10
2023-04-09T08:37:47.305Z,28.20
2023-04-09T08:38:47.340Z,27.40
2023-04-09T08:39:47.348Z,29.10
2023-04-09T08:40:47.292Z,28.90
2023-04-09T08:41:47.125Z,27.00
2023-04-09T08:42:47.313Z,26.60
2023-04-09T08:44:47.353Z,26.50
2023-04-09T08:45:47.249Z,27.70
2023-04-09T08:46:47.246Z,26.00
2023-04-09T08:47:47.275Z,27.30
2023-04-09T08:48:47.175Z,26.90
2023-04-09T08:49:47.210Z,26.50
2023-04-09T08:50:47.296Z,27.90
2023-04-09T08:51:47.262Z,25.70
2023-04-09T08:52:47.292Z,24.30
2023-04-09T08:53:47.234Z,25.90
2023-04-09T08:54:47.203Z,26.60
2023-04-09T08:55:47.123Z,24.60
2023-04-09T08:56:47.241Z,23.60
2023-04-09T08:57:47.104Z,24.40
2023-04-09T08:58:46.960Z,24.70
2023-04-09T08:59:47.078Z,24.50
2023-04-09T09:00:46.956Z,24.70
2023-04-09T09:01:47.187Z,24.00
2023-04-09T09:02:47.227Z,23.40
2023-04-09T09:03:47.129Z,24.20
2023-04-09T09:04:47.051Z,24.50
2023-04-09T09:05:47.066Z,22.30
2023-04-09T09:06:47.060Z,23.50
2023-04-09T09:07:47.031Z,23.40
2023-04-09T09:08:47.082Z,23.10
2023-04-09T09:09:46.876Z,23.40
2023-04-09T09:10:47.013Z,22.40
2023-04-09T09:11:47.077Z,21.80
2023-04-09T09:12:46.826Z,21.70
2023-04-09T09:13:46.967Z,20.90
2023-04-09T09:14:46.933Z,22.30
2023-04-09T09:15:46.788Z,21.00
2023-04-09T09:16:46.804Z,21.90
2023-04-09T09:17:46.832Z,21.90
2023-04-09T09:18:46.881Z,20.60
2023-04-09T09:19:46.947Z,18.30
2023-04-09T09:20:46.754Z,18.70
2023-04-09T09:21:46.764Z,21.10
2023-04-09T09:22:46.785Z,20.70
2023-04-09T09:23:46.918Z,19.80
2023-04-09T09:24:48.459Z,20.60
2023-04-09T09:25:46.775Z,19.40
2023-04-09T09:26:46.801Z,20.20
2023-04-09T09:27:46.757Z,19.90
2023-04-09T09:28:46.893Z,19.10
2023-04-09T09:29:46.833Z,20.00
2023-04-09T09:31:46.769Z,18.60
2023-04-09T09:32:46.862Z,19.20
2023-04-09T09:33:46.806Z,18.60
2023-04-09T09:34:46.779Z,20.10
2023-04-09T09:35:46.819Z,19.20
2023-04-09T09:36:46.734Z,18.00
2023-04-09T09:37:46.710Z,19.00
2023-04-09T09:38:46.838Z,18.50
2023-04-09T09:39:46.796Z,19.90
2023-04-09T09:40:46.674Z,19.30
2023-04-09T09:41:46.628Z,18.70
2023-04-09T09:42:46.580Z,18.40
2023-04-09T09:43:46.620Z,19.50
2023-04-09T09:44:46.730Z,17.90
2023-04-09T09:45:46.891Z,19.00
2023-04-09T09:46:46.581Z,19.20
2023-04-09T09:47:46.724Z,19.40
2023-04-09T09:48:46.596Z,18.40
2023-04-09T09:49:46.627Z,18.20
2023-04-09T09:50:46.654Z,18.00
2023-04-09T09:51:46.534Z,18.50
2023-04-09T09:52:46.393Z,18.80
2023-04-09T09:53:48.384Z,17.90
2023-04-09T09:54:46.393Z,17.90
2023-04-09T09:55:46.375Z,18.30
2023-04-09T09:56:46.579Z,19.40
2023-04-09T09:57:46.379Z,17.80
2023-04-09T09:58:46.480Z,18.50
2023-04-09T09:59:46.455Z,17.60
2023-04-09T10:00:46.513Z,17.50
2023-04-09T10:01:46.547Z,17.60
2023-04-09T10:02:46.525Z,16.80
2023-04-09T10:03:46.360Z,17.00
2023-04-09T10:04:46.374Z,17.90
2023-04-09T10:05:46.343Z,17.60
2023-04-09T10:06:46.292Z,16.30
2023-04-09T10:07:46.281Z,18.00
2023-04-09T10:08:46.340Z,17.20
2023-04-09T10:09:46.266Z,18.00
2023-04-09T10:10:46.235Z,17.50
2023-04-09T10:11:46.200Z,18.10
2023-04-09T10:12:46.459Z,16.30
2023-04-09T10:13:46.374Z,16.80
2023-04-09T10:14:46.319Z,16.70
2023-04-09T10:15:46.431Z,17.30
2023-04-09T10:16:46.197Z,16.30
2023-04-09T10:17:46.322Z,15.50
2023-04-09T10:18:46.388Z,15.40
2023-04-09T10:19:46.378Z,15.60
2023-04-09T10:20:46.140Z,15.70
2023-04-09T10:21:46.128Z,15.10
2023-04-09T10:22:46.288Z,14.20
2023-04-09T10:23:46.203Z,14.80
2023-04-09T10:24:46.180Z,15.00
2023-04-09T10:25:46.282Z,15.40
2023-04-09T10:26:46.174Z,15.50
2023-04-09T10:27:46.204Z,15.90
2023-04-09T10:28:46.252Z,15.60
2023-04-09T10:29:46.184Z,15.60
2023-04-09T10:30:46.331Z,14.80
2023-04-09T10:31:46.157Z,15.20
2023-04-09T10:32:46.008Z,15.40
2023-04-09T10:33:46.017Z,15.40
2023-04-09T10:34:45.970Z,16.40
2023-04-09T10:35:46.049Z,16.20
2023-04-09T10:36:46.072Z,16.70
2023-04-09T10:37:46.052Z,17.40
2023-04-09T10:38:46.035Z,20.50
2023-04-09T10:39:46.154Z,20.80
2023-04-09T10:40:46.208Z,17.50
2023-04-09T10:41:46.033Z,16.70
2023-04-09T10:42:46.014Z,18.10
2023-04-09T10:43:46.035Z,17.60
2023-04-09T10:44:46.062Z,17.90
2023-04-09T10:45:46.044Z,17.40
2023-04-09T10:46:46.225Z,17.50
2023-04-09T10:47:46.117Z,17.20
2023-04-09T10:48:45.905Z,17.40
2023-04-09T10:49:45.851Z,17.20
2023-04-09T10:50:46.763Z,16.60
2023-04-09T10:51:45.813Z,18.00
2023-04-09T10:52:45.795Z,17.40
2023-04-09T10:53:45.796Z,18.60
2023-04-09T10:54:45.913Z,18.00
2023-04-09T10:55:45.837Z,18.90
2023-04-09T10:56:45.753Z,18.50
2023-04-09T10:57:45.800Z,18.10
2023-04-09T10:58:45.730Z,18.20
2023-04-09T10:59:46.054Z,18.40
2023-04-09T11:00:45.704Z,18.20
2023-04-09T11:01:45.756Z,18.60
2023-04-09T11:02:45.802Z,19.60
2023-04-09T11:03:45.929Z,17.90
2023-04-09T11:04:45.796Z,20.20
2023-04-09T11:05:45.738Z,16.70
2023-04-09T11:06:45.809Z,17.90
2023-04-09T11:07:45.776Z,18.00
2023-04-09T11:08:45.822Z,19.40
2023-04-09T11:09:45.787Z,19.30
2023-04-09T11:10:45.766Z,17.50
2023-04-09T11:11:45.713Z,18.20
2023-04-09T11:12:45.739Z,17.60
2023-04-09T11:13:45.761Z,17.00
2023-04-09T11:14:45.777Z,16.70
2023-04-09T11:15:45.783Z,17.60
2023-04-09T11:16:45.714Z,16.50
2023-04-09T11:17:45.637Z,17.80
2023-04-09T11:18:45.657Z,19.20
2023-04-09T11:19:45.742Z,17.60
2023-04-09T11:20:45.649Z,21.10
2023-04-09T11:21:45.645Z,27.50
2023-04-09T11:22:45.664Z,24.10
2023-04-09T11:23:45.529Z,20.40
2023-04-09T11:24:45.619Z,18.40
2023-04-09T11:25:45.696Z,20.00
2023-04-09T11:26:45.551Z,18.80
2023-04-09T11:27:46.878Z,19.40
2023-04-09T11:28:45.593Z,21.50
2023-04-09T11:29:45.642Z,21.50
2023-04-09T11:30:45.546Z,21.00
2023-04-09T11:31:45.679Z,19.90
2023-04-09T11:32:45.602Z,20.60
2023-04-09T11:33:45.586Z,21.60
2023-04-09T11:34:45.583Z,19.90
2023-04-09T11:35:45.653Z,20.20
2023-04-09T11:36:45.516Z,20.70
2023-04-09T11:37:45.583Z,20.50
2023-04-09T11:38:45.494Z,20.00
2023-04-09T11:39:45.489Z,20.10
2023-04-09T11:40:45.478Z,21.10
2023-04-09T11:41:45.502Z,21.10
2023-04-09T11:42:45.328Z,20.50
2023-04-09T11:43:45.419Z,21.20
2023-04-09T11:44:45.310Z,21.60
2023-04-09T11:45:45.385Z,20.20
2023-04-09T11:46:45.430Z,21.90
2023-04-09T11:47:45.412Z,22.00
2023-04-09T11:48:45.481Z,24.10
2023-04-09T11:49:45.314Z,21.40
2023-04-09T11:50:45.404Z,21.30
2023-04-09T11:51:45.305Z,22.60
2023-04-09T11:52:45.214Z,21.40
2023-04-09T11:53:45.204Z,21.10
2023-04-09T11:54:45.345Z,23.20
2023-04-09T11:55:45.278Z,20.70
2023-04-09T11:56:45.301Z,21.90
2023-04-09T11:57:45.270Z,23.70
2023-04-09T11:58:45.250Z,21.50
2023-04-09T11:59:45.366Z,22.60
2023-04-09T12:00:45.261Z,22.30
2023-04-09T12:01:45.325Z,21.50
2023-04-09T12:02:45.368Z,23.40
2023-04-09T12:03:45.274Z,20.90
2023-04-09T12:04:45.333Z,21.90
2023-04-09T12:05:49.651Z,21.40
2023-04-09T12:06:45.175Z,20.50
2023-04-09T12:07:51.847Z,20.70
2023-04-09T12:08:45.219Z,20.00
2023-04-09T12:09:45.126Z,20.50
2023-04-09T12:10:45.190Z,20.90
2023-04-09T12:11:45.075Z,20.80
2023-04-09T12:12:45.121Z,21.10
2023-04-09T12:13:45.113Z,20.40
2023-04-09T12:14:45.186Z,20.40
2023-04-09T12:15:45.083Z,21.20
2023-04-09T12:16:45.161Z,20.00
2023-04-09T12:17:45.110Z,19.50
2023-04-09T12:18:44.989Z,20.00
2023-04-09T12:19:45.108Z,19.80
2023-04-09T12:20:45.006Z,20.60
2023-04-09T12:21:45.069Z,20.10
2023-04-09T12:22:44.996Z,20.40
2023-04-09T12:23:45.063Z,19.60
2023-04-09T12:24:45.049Z,18.80
2023-04-09T12:25:44.935Z,19.50
2023-04-09T12:26:44.923Z,18.20
2023-04-09T12:27:44.970Z,20.40
2023-04-09T12:28:44.846Z,20.00
2023-04-09T12:29:44.952Z,20.40
2023-04-09T12:30:44.922Z,19.80
2023-04-09T12:31:44.920Z,19.00
2023-04-09T12:32:44.922Z,18.80
2023-04-09T12:33:44.927Z,19.50
2023-04-09T12:34:44.922Z,18.80
2023-04-09T12:35:44.949Z,20.10
2023-04-09T12:36:44.871Z,18.60
2023-04-09T12:37:44.772Z,19.20
2023-04-09T12:38:44.856Z,19.40
2023-04-09T12:39:44.754Z,18.60
2023-04-09T12:40:44.791Z,21.30
2023-04-09T12:41:44.803Z,19.70
2023-04-09T12:42:44.811Z,19.90
2023-04-09T12:43:44.886Z,20.30
2023-04-09T12:44:44.787Z,18.60
2023-04-09T12:45:44.835Z,19.40
2023-04-09T12:46:44.852Z,19.70
2023-04-09T12:47:44.785Z,18.80
2023-04-09T12:48:44.734Z,19.60